createdAt,value
2022-12-20T00:01:50.968Z,28.38
2022-12-20T00:04:18.454Z,30.90
2022-12-20T00:06:45.695Z,28.77
2022-12-20T00:09:13.190Z,29.65
2022-12-20T00:11:42.266Z,29.73
2022-12-20T00:14:11.023Z,29.75
2022-12-20T00:16:38.934Z,29.27
2022-12-20T00:19:07.640Z,29.88
2022-12-20T00:21:36.378Z,29.88
2022-12-20T00:24:06.255Z,29.50
2022-12-20T00:26:36.188Z,28.27
2022-12-20T00:29:05.194Z,28.30
2022-12-20T00:31:38.590Z,30.33
2022-12-20T00:34:06.551Z,29.73
2022-12-20T00:36:34.090Z,29.02
2022-12-20T00:39:02.865Z,29.05
2022-12-20T00:41:34.540Z,31.08
2022-12-20T00:44:04.352Z,30.38
2022-12-20T00:46:32.653Z,30.67
2022-12-20T00:49:00.645Z,30.70
2022-12-20T00:51:31.345Z,28.85
2022-12-20T00:53:59.275Z,30.20
2022-12-20T00:56:26.859Z,30.98
2022-12-20T00:59:00.353Z,30.25
2022-12-20T01:01:32.704Z,29.02
2022-12-20T01:04:01.226Z,27.50
2022-12-20T01:06:30.641Z,27.63
2022-12-20T01:08:58.762Z,27.00
2022-12-20T01:11:32.576Z,28.67
2022-12-20T01:14:10.209Z,27.98
2022-12-20T01:16:45.375Z,28.50
2022-12-20T01:19:18.634Z,28.55
2022-12-20T01:21:46.766Z,28.80
2022-12-20T01:24:18.509Z,27.10
2022-12-20T01:26:47.271Z,27.13
2022-12-20T01:29:15.473Z,27.20
2022-12-20T01:31:44.441Z,26.30
2022-12-20T01:34:13.643Z,24.98
2022-12-20T01:36:41.119Z,25.67
2022-12-20T01:39:17.070Z,25.80
2022-12-20T01:41:46.415Z,27.23
2022-12-20T01:44:16.928Z,25.50
2022-12-20T01:46:47.573Z,25.85
2022-12-20T01:49:29.127Z,25.80
2022-12-20T01:52:09.226Z,26.17
2022-12-20T01:55:04.373Z,24.40
2022-12-20T01:57:46.170Z,25.73
2022-12-20T02:00:15.150Z,24.55
2022-12-20T02:02:45.932Z,26.20
2022-12-20T02:05:14.860Z,24.67
2022-12-20T02:07:52.889Z,25.48
2022-12-20T02:10:29.144Z,27.15
2022-12-20T02:13:20.322Z,24.30
2022-12-20T02:15:58.012Z,24.35
2022-12-20T02:18:45.548Z,25.23
2022-12-20T02:21:35.849Z,24.38
2022-12-20T02:24:59.450Z,23.63
2022-12-20T02:27:46.820Z,22.40
2022-12-20T02:30:22.192Z,23.52
2022-12-20T02:33:00.509Z,23.15
2022-12-20T02:35:37.039Z,23.00
2022-12-20T02:38:38.232Z,23.65
2022-12-20T02:41:21.238Z,24.15
2022-12-20T02:44:16.488Z,25.65
2022-12-20T02:46:45.656Z,24.00
2022-12-20T02:49:18.834Z,24.58
2022-12-20T02:51:52.252Z,24.23
2022-12-20T02:54:21.284Z,23.92
2022-12-20T02:57:06.634Z,24.38
2022-12-20T03:00:08.748Z,23.25
2022-12-20T03:02:56.673Z,23.58
2022-12-20T03:05:27.641Z,23.70
2022-12-20T03:07:55.926Z,23.60
2022-12-20T03:10:26.621Z,23.63
2022-12-20T03:12:54.452Z,23.02
2022-12-20T03:15:21.760Z,22.65
2022-12-20T03:17:53.055Z,24.60
2022-12-20T03:20:20.595Z,24.48
2022-12-20T03:22:48.038Z,24.13
2022-12-20T03:25:15.544Z,25.00
2022-12-20T03:27:43.139Z,24.13
2022-12-20T03:30:11.840Z,23.70
2022-12-20T03:32:39.269Z,25.38
2022-12-20T03:35:08.091Z,23.17
2022-12-20T03:37:39.211Z,24.45
2022-12-20T03:40:14.127Z,22.58
2022-12-20T03:43:07.827Z,23.05
2022-12-20T03:45:35.612Z,23.88
2022-12-20T03:48:03.969Z,23.98
2022-12-20T03:50:32.642Z,23.60
2022-12-20T03:53:07.351Z,23.17
2022-12-20T03:55:35.357Z,25.08
2022-12-20T03:58:03.065Z,25.10
2022-12-20T04:00:37.594Z,24.20
2022-12-20T04:03:31.826Z,23.92
2022-12-20T04:05:59.515Z,22.10
2022-12-20T04:08:28.112Z,23.83
2022-12-20T04:11:14.841Z,22.88
2022-12-20T04:13:48.101Z,22.65
2022-12-20T04:16:23.774Z,23.00
2022-12-20T04:18:52.199Z,23.65
2022-12-20T04:21:27.890Z,23.00
2022-12-20T04:24:01.772Z,23.40
2022-12-20T04:26:46.418Z,22.35
2022-12-20T04:29:15.990Z,22.27
2022-12-20T04:31:44.862Z,22.48
2022-12-20T04:34:13.552Z,22.45
2022-12-20T04:36:41.136Z,23.63
2022-12-20T04:39:15.133Z,23.63
2022-12-20T04:42:05.049Z,22.45
2022-12-20T04:44:32.802Z,21.42
2022-12-20T04:47:00.735Z,21.45
2022-12-20T04:49:29.505Z,22.45
2022-12-20T04:52:17.138Z,22.30
2022-12-20T04:54:46.662Z,21.15
2022-12-20T04:57:17.534Z,21.38
2022-12-20T04:59:45.694Z,21.05
2022-12-20T05:02:14.502Z,22.15
2022-12-20T05:04:48.940Z,21.98
2022-12-20T05:07:17.162Z,21.90
2022-12-20T05:09:50.950Z,22.58
2022-12-20T05:12:18.345Z,23.10
2022-12-20T05:14:46.034Z,22.75
2022-12-20T05:17:16.480Z,22.70
2022-12-20T05:19:44.402Z,21.25
2022-12-20T05:22:32.991Z,20.60
2022-12-20T05:25:26.031Z,21.73
2022-12-20T05:27:55.318Z,21.52
2022-12-20T05:30:27.533Z,21.90
2022-12-20T05:32:55.192Z,21.30
2022-12-20T05:35:22.887Z,21.73
2022-12-20T05:37:56.299Z,22.00
2022-12-20T05:40:23.792Z,21.30
2022-12-20T05:42:51.533Z,20.52
2022-12-20T05:45:19.987Z,21.02
2022-12-20T05:47:56.803Z,20.50
2022-12-20T05:50:24.342Z,20.95
2022-12-20T05:53:16.974Z,21.52
2022-12-20T05:55:54.441Z,21.33
2022-12-20T05:58:27.579Z,19.30
2022-12-20T06:01:09.041Z,21.63
2022-12-20T06:03:40.674Z,20.48
2022-12-20T06:06:14.878Z,20.50
2022-12-20T06:08:45.195Z,20.70
2022-12-20T06:11:18.629Z,20.63
2022-12-20T06:13:51.513Z,21.35
2022-12-20T06:16:21.114Z,22.20
2022-12-20T06:18:48.568Z,20.35
2022-12-20T06:21:17.951Z,20.48
2022-12-20T06:23:45.833Z,22.10
2022-12-20T06:26:15.441Z,20.33
2022-12-20T06:28:52.430Z,23.63
2022-12-20T06:31:29.075Z,23.63
2022-12-20T06:33:56.661Z,23.65
2022-12-20T06:36:28.241Z,22.27
2022-12-20T06:38:56.301Z,21.60
2022-12-20T06:41:23.819Z,22.83
2022-12-20T06:43:52.934Z,21.98
2022-12-20T06:46:20.394Z,22.42
2022-12-20T06:48:48.531Z,22.77
2022-12-20T06:51:17.420Z,22.33
2022-12-20T06:53:45.294Z,22.77
2022-12-20T06:56:12.859Z,21.88
2022-12-20T06:58:41.709Z,24.58
2022-12-20T07:01:09.382Z,23.13
2022-12-20T07:03:36.872Z,21.88
2022-12-20T07:06:04.847Z,23.23
2022-12-20T07:08:32.209Z,22.20
2022-12-20T07:11:11.213Z,21.98
2022-12-20T07:13:39.213Z,23.17
2022-12-20T07:16:08.892Z,21.73
2022-12-20T07:18:36.539Z,21.40
2022-12-20T07:21:06.171Z,20.83
2022-12-20T07:23:34.096Z,21.65
2022-12-20T07:26:03.856Z,20.80
2022-12-20T07:28:31.816Z,21.98
2022-12-20T07:31:03.279Z,22.25
2022-12-20T07:33:31.368Z,22.67
2022-12-20T07:36:05.549Z,21.88
2022-12-20T07:38:33.987Z,21.20
2022-12-20T07:41:10.101Z,21.00
2022-12-20T07:43:38.008Z,22.00
2022-12-20T07:46:07.844Z,21.67
2022-12-20T07:48:36.272Z,20.25
2022-12-20T07:51:31.283Z,20.38
2022-12-20T07:54:10.650Z,20.85
2022-12-20T07:56:47.139Z,20.45
2022-12-20T07:59:22.820Z,20.13
2022-12-20T08:01:51.034Z,19.85
2022-12-20T08:04:26.043Z,21.05
2022-12-20T08:06:58.241Z,19.75
2022-12-20T08:09:30.391Z,20.33
2022-12-20T08:11:59.345Z,18.90
2022-12-20T08:14:27.340Z,19.88
2022-12-20T08:16:54.859Z,19.35
2022-12-20T08:19:26.790Z,19.42
2022-12-20T08:21:57.737Z,19.15
2022-12-20T08:24:25.199Z,19.85
2022-12-20T08:26:52.424Z,19.15
2022-12-20T08:29:19.834Z,20.90
2022-12-20T08:31:50.415Z,20.80
2022-12-20T08:34:19.174Z,19.58
2022-12-20T08:36:46.699Z,19.75
2022-12-20T08:39:14.035Z,19.42
2022-12-20T08:41:41.464Z,20.13
2022-12-20T08:44:10.343Z,19.15
2022-12-20T08:46:38.125Z,19.08
2022-12-20T08:49:06.521Z,19.00
2022-12-20T08:51:34.347Z,19.38
2022-12-20T08:54:02.735Z,18.58
2022-12-20T08:56:30.144Z,19.00
2022-12-20T08:58:57.571Z,19.60
2022-12-20T09:01:26.895Z,19.25
2022-12-20T09:03:54.485Z,18.75
2022-12-20T09:06:24.003Z,18.75
2022-12-20T09:08:52.333Z,18.23
2022-12-20T09:11:25.133Z,19.90
2022-12-20T09:13:57.004Z,19.92
2022-12-20T09:16:29.216Z,18.55
2022-12-20T09:19:05.049Z,19.27
2022-12-20T09:21:34.475Z,19.27
2022-12-20T09:24:01.914Z,19.27
2022-12-20T09:26:30.654Z,18.75
2022-12-20T09:29:02.147Z,20.13
2022-12-20T09:31:29.846Z,19.55
2022-12-20T09:33:59.800Z,19.73
2022-12-20T09:36:29.528Z,19.90
2022-12-20T09:38:58.214Z,20.02
2022-12-20T09:41:44.309Z,19.73
2022-12-20T09:44:29.742Z,19.25
2022-12-20T09:47:36.518Z,18.73
2022-12-20T09:50:07.554Z,19.05
2022-12-20T09:53:18.526Z,18.42
2022-12-20T09:56:28.751Z,20.67
2022-12-20T09:59:07.284Z,18.05
2022-12-20T10:01:39.994Z,17.88
2022-12-20T10:04:29.023Z,16.88
2022-12-20T10:07:33.758Z,17.58
2022-12-20T10:10:45.706Z,16.58
2022-12-20T10:14:19.533Z,16.02
2022-12-20T10:16:58.726Z,17.23
2022-12-20T10:20:08.807Z,15.38
2022-12-20T10:23:02.011Z,17.27
2022-12-20T10:25:36.416Z,16.02
2022-12-20T10:28:15.523Z,15.73
2022-12-20T10:30:45.819Z,15.15
2022-12-20T10:33:25.195Z,14.98
2022-12-20T10:35:53.323Z,15.20
2022-12-20T10:38:21.084Z,14.90
2022-12-20T10:41:21.178Z,14.68
2022-12-20T10:44:00.243Z,20.00
2022-12-20T10:46:48.406Z,18.77
2022-12-20T10:49:35.241Z,20.65
2022-12-20T10:52:14.433Z,16.77
2022-12-20T10:54:45.938Z,18.35
2022-12-20T10:57:26.572Z,18.27
2022-12-20T11:00:05.669Z,18.48
2022-12-20T11:02:42.775Z,18.15
2022-12-20T11:05:14.827Z,18.42
2022-12-20T11:08:36.050Z,18.50
2022-12-20T11:11:19.876Z,18.38
2022-12-20T11:13:50.450Z,18.15
2022-12-20T11:16:38.574Z,19.33
2022-12-20T11:19:26.939Z,18.15
2022-12-20T11:22:14.273Z,19.17
2022-12-20T11:25:25.607Z,19.63
2022-12-20T11:28:23.650Z,19.67
2022-12-20T11:31:43.922Z,19.38
2022-12-20T11:34:45.015Z,19.38
2022-12-20T11:37:29.384Z,19.90
2022-12-20T11:40:35.350Z,19.08
2022-12-20T11:43:29.837Z,17.95
2022-12-20T11:47:05.887Z,19.58
2022-12-20T11:50:05.561Z,21.02
2022-12-20T11:53:00.935Z,20.42
2022-12-20T11:55:41.817Z,20.23
2022-12-20T11:58:52.705Z,20.20
2022-12-20T12:01:51.766Z,19.25
2022-12-20T12:04:39.277Z,17.00
2022-12-20T12:07:23.181Z,18.08
2022-12-20T12:10:25.186Z,18.98
2022-12-20T12:13:24.997Z,17.98
2022-12-20T12:16:08.620Z,17.55
2022-12-20T12:18:39.890Z,17.95
2022-12-20T12:21:33.496Z,18.63
2022-12-20T12:24:25.054Z,19.42
2022-12-20T12:26:53.659Z,18.52
2022-12-20T12:29:22.587Z,18.70
2022-12-20T12:32:20.341Z,17.42
2022-12-20T12:34:47.791Z,19.05
2022-12-20T12:38:06.328Z,19.25
2022-12-20T12:40:39.442Z,18.65
2022-12-20T12:43:31.524Z,18.77
2022-12-20T12:46:14.187Z,18.25
2022-12-20T12:49:18.228Z,17.98
2022-12-20T12:51:59.321Z,19.98
2022-12-20T12:54:48.785Z,19.27
2022-12-20T12:57:19.718Z,19.08
2022-12-20T12:59:51.455Z,19.42
2022-12-20T13:02:21.023Z,18.50
2022-12-20T13:05:06.592Z,18.90
2022-12-20T13:07:37.394Z,20.15
2022-12-20T13:10:18.325Z,21.60
2022-12-20T13:13:02.468Z,19.67
2022-12-20T13:15:32.597Z,18.63
2022-12-20T13:18:24.718Z,19.35
2022-12-20T13:21:36.400Z,18.17
2022-12-20T13:24:48.681Z,19.15
2022-12-20T13:27:39.375Z,17.80
2022-12-20T13:30:13.214Z,17.38
2022-12-20T13:32:59.528Z,17.38
2022-12-20T13:35:30.025Z,18.17
2022-12-20T13:38:52.559Z,19.52
2022-12-20T13:41:45.789Z,19.20
2022-12-20T13:44:16.094Z,18.15
2022-12-20T13:47:47.218Z,18.52
2022-12-20T13:50:35.492Z,18.23
2022-12-20T13:53:08.205Z,18.65
2022-12-20T13:55:40.170Z,17.42
2022-12-20T13:58:20.288Z,21.30
2022-12-20T14:00:50.231Z,21.25
2022-12-20T14:03:28.858Z,18.95
2022-12-20T14:06:05.276Z,17.92
2022-12-20T14:08:41.057Z,19.65
2022-12-20T14:11:18.432Z,18.13
2022-12-20T14:14:04.557Z,19.63
2022-12-20T14:16:33.723Z,20.30
2022-12-20T14:19:07.394Z,20.85
2022-12-20T14:21:40.636Z,20.90
2022-12-20T14:24:22.572Z,18.90
2022-12-20T14:26:53.894Z,19.10
2022-12-20T14:29:30.996Z,18.15
2022-12-20T14:31:58.564Z,18.17
2022-12-20T14:34:36.761Z,18.13
2022-12-20T14:37:40.088Z,17.98
2022-12-20T14:40:12.574Z,16.23
2022-12-20T14:42:41.100Z,16.98
2022-12-20T14:45:13.970Z,16.90
2022-12-20T14:48:16.554Z,16.67
2022-12-20T14:50:54.178Z,15.63
2022-12-20T14:53:30.388Z,17.02
2022-12-20T14:55:58.315Z,17.08
2022-12-20T14:58:34.460Z,18.25
2022-12-20T15:01:31.417Z,18.52
2022-12-20T15:04:35.589Z,20.08
2022-12-20T15:07:03.852Z,21.13
2022-12-20T15:09:31.127Z,19.08
2022-12-20T15:11:58.675Z,21.10
2022-12-20T15:14:38.938Z,20.55
2022-12-20T15:17:15.810Z,19.52
2022-12-20T15:19:44.046Z,18.80
2022-12-20T15:22:18.568Z,19.95
2022-12-20T15:24:46.007Z,20.48
2022-12-20T15:27:15.392Z,19.08
2022-12-20T15:29:43.436Z,17.83
2022-12-20T15:32:30.083Z,18.23
2022-12-20T15:34:57.451Z,20.23
2022-12-20T15:37:29.624Z,20.23
2022-12-20T15:39:57.133Z,19.63
2022-12-20T15:42:25.223Z,20.45
2022-12-20T15:44:52.647Z,21.35
2022-12-20T15:47:20.281Z,21.77
2022-12-20T15:49:50.537Z,20.88
2022-12-20T15:52:24.482Z,22.27
2022-12-20T15:54:52.181Z,20.35
2022-12-20T15:57:20.830Z,22.35
2022-12-20T15:59:59.802Z,20.08
2022-12-20T16:02:31.142Z,23.25
2022-12-20T16:04:59.516Z,24.73
2022-12-20T16:07:27.372Z,20.33
2022-12-20T16:09:55.029Z,21.48
2022-12-20T16:12:35.897Z,19.40
2022-12-20T16:15:04.725Z,20.63
2022-12-20T16:17:32.152Z,20.10
2022-12-20T16:19:59.496Z,20.25
2022-12-20T16:22:27.085Z,20.40
2022-12-20T16:24:54.552Z,21.48
2022-12-20T16:27:21.866Z,22.88
2022-12-20T16:29:49.322Z,22.58
2022-12-20T16:32:21.855Z,20.73
2022-12-20T16:34:52.055Z,20.38
2022-12-20T16:37:19.543Z,20.73
2022-12-20T16:39:47.245Z,21.83
2022-12-20T16:42:23.560Z,20.33
2022-12-20T16:44:54.585Z,20.15
2022-12-20T16:47:22.569Z,20.05
2022-12-20T16:49:53.770Z,17.63
2022-12-20T16:52:23.856Z,18.20
2022-12-20T16:54:51.904Z,18.73
2022-12-20T16:57:21.342Z,17.80
2022-12-20T16:59:49.207Z,18.70
2022-12-20T17:02:43.531Z,17.52
2022-12-20T17:05:36.409Z,18.98
2022-12-20T17:08:04.192Z,18.60
2022-12-20T17:10:31.655Z,18.00
2022-12-20T17:12:59.680Z,22.80
2022-12-20T17:15:31.971Z,19.13
2022-12-20T17:17:59.388Z,19.17
2022-12-20T17:20:29.024Z,19.98
2022-12-20T17:22:58.489Z,20.63
2022-12-20T17:25:32.275Z,20.83
2022-12-20T17:27:59.954Z,20.90
2022-12-20T17:30:27.516Z,21.73
2022-12-20T17:32:55.201Z,21.73
2022-12-20T17:35:32.933Z,23.92
2022-12-20T17:38:00.620Z,21.17
2022-12-20T17:46:17.885Z,28.85
2022-12-20T17:48:46.263Z,24.58
2022-12-20T17:51:29.280Z,31.38
2022-12-20T17:54:01.623Z,27.23
2022-12-20T17:56:33.132Z,23.92
2022-12-20T17:59:04.143Z,24.00
2022-12-20T18:02:00.743Z,24.02
2022-12-20T18:04:28.418Z,24.33
2022-12-20T18:06:56.730Z,23.58
2022-12-20T18:09:24.122Z,24.73
2022-12-20T18:11:51.372Z,24.52
2022-12-20T18:14:18.796Z,23.88
2022-12-20T18:16:46.356Z,23.67
2022-12-20T18:19:19.071Z,23.38
2022-12-20T18:21:46.414Z,24.30
2022-12-20T18:24:17.335Z,24.63
2022-12-20T18:26:45.226Z,23.52
2022-12-20T18:29:12.911Z,25.17
2022-12-20T18:31:42.205Z,25.88
2022-12-20T18:34:10.154Z,25.58
2022-12-20T18:36:38.115Z,25.55
2022-12-20T18:39:08.489Z,25.90
2022-12-20T18:41:35.991Z,24.35
2022-12-20T18:44:06.939Z,28.40
2022-12-20T18:46:36.431Z,25.55
2022-12-20T18:49:04.382Z,25.90
2022-12-20T18:51:38.838Z,24.70
2022-12-20T18:54:10.010Z,25.05
2022-12-20T18:56:39.639Z,24.17
2022-12-20T18:59:11.879Z,25.10
2022-12-20T19:01:42.798Z,28.65
2022-12-20T19:04:12.172Z,27.15
2022-12-20T19:06:40.352Z,28.05
2022-12-20T19:09:13.391Z,26.70
2022-12-20T19:11:41.945Z,25.92
2022-12-20T19:14:12.611Z,24.30
2022-12-20T19:16:40.498Z,23.70
2022-12-20T19:19:09.099Z,24.63
2022-12-20T19:21:40.876Z,23.60
2022-12-20T19:24:18.666Z,22.88
2022-12-20T19:26:46.199Z,22.90
2022-12-20T19:29:13.639Z,22.75
2022-12-20T19:31:45.273Z,23.58
2022-12-20T19:34:14.464Z,22.85
2022-12-20T19:36:48.481Z,24.15
2022-12-20T19:39:23.494Z,23.77
2022-12-20T19:44:44.933Z,22.00
2022-12-20T19:47:13.161Z,22.80
2022-12-20T19:49:43.295Z,22.45
2022-12-20T19:52:13.502Z,21.83
2022-12-20T19:54:42.895Z,21.23
2022-12-20T19:57:10.550Z,21.38
2022-12-20T19:59:37.875Z,22.55
2022-12-20T20:02:05.500Z,21.88
2022-12-20T20:04:33.475Z,21.52
2022-12-20T20:07:01.035Z,22.05
2022-12-20T20:09:31.692Z,21.83
2022-12-20T20:11:59.456Z,20.63
2022-12-20T20:14:30.453Z,20.95
2022-12-20T20:16:57.892Z,20.08
2022-12-20T20:19:25.158Z,21.52
2022-12-20T20:21:52.766Z,19.98
2022-12-20T20:24:20.856Z,21.13
2022-12-20T20:26:51.308Z,20.38
2022-12-20T20:29:18.718Z,21.13
2022-12-20T20:31:46.294Z,20.35
2022-12-20T20:34:13.800Z,20.42
2022-12-20T20:36:41.072Z,20.83
2022-12-20T20:39:08.435Z,20.98
2022-12-20T20:41:35.952Z,19.73
2022-12-20T20:44:03.568Z,19.52
2022-12-20T20:46:30.822Z,20.90
2022-12-20T20:48:58.650Z,19.52
2022-12-20T20:51:26.234Z,21.33
2022-12-20T20:53:53.647Z,19.95
2022-12-20T20:56:21.023Z,19.63
2022-12-20T20:58:49.875Z,19.05
2022-12-20T21:01:17.130Z,19.27
2022-12-20T21:03:44.607Z,18.10
2022-12-20T21:08:59.572Z,19.75
2022-12-20T21:11:28.226Z,19.60
2022-12-20T21:13:55.939Z,19.70
2022-12-20T21:16:24.368Z,19.85
2022-12-20T21:18:53.635Z,20.45
2022-12-20T21:21:26.756Z,20.65
2022-12-20T21:23:55.761Z,19.48
2022-12-20T21:26:27.745Z,19.65
2022-12-20T21:29:00.150Z,20.42
2022-12-20T21:31:28.172Z,22.38
2022-12-20T21:33:56.717Z,21.40
2022-12-20T21:36:25.596Z,21.55
2022-12-20T21:38:57.456Z,22.10
2022-12-20T21:41:28.725Z,21.88
2022-12-20T21:44:01.223Z,21.08
2022-12-20T21:46:32.163Z,21.77
2022-12-20T21:49:00.679Z,21.85
2022-12-20T21:51:30.416Z,21.23
2022-12-20T21:54:01.822Z,22.25
2022-12-20T21:56:34.237Z,21.60
2022-12-20T21:59:04.160Z,21.90
2022-12-20T22:01:32.563Z,22.38
2022-12-20T22:04:10.350Z,23.75
2022-12-20T22:06:38.040Z,23.38
2022-12-20T22:09:10.108Z,24.13
2022-12-20T22:11:38.438Z,24.73
2022-12-20T22:14:06.822Z,25.55
2022-12-20T22:16:37.130Z,22.38
2022-12-20T22:19:09.058Z,23.92
2022-12-20T22:21:37.970Z,22.92
2022-12-20T22:24:05.866Z,23.27
2022-12-20T22:26:34.581Z,22.80
2022-12-20T22:29:07.984Z,22.92
2022-12-20T22:31:39.862Z,22.48
2022-12-20T22:34:07.217Z,23.30
2022-12-20T22:36:34.744Z,23.75
2022-12-20T22:39:02.451Z,22.48
2022-12-20T22:41:34.887Z,23.67
2022-12-20T22:44:03.083Z,23.13
2022-12-20T22:46:31.327Z,22.23
2022-12-20T22:49:00.081Z,23.58
2022-12-20T22:51:30.774Z,22.17
2022-12-20T22:54:00.286Z,21.33
2022-12-20T22:56:28.104Z,22.45
2022-12-20T22:58:56.030Z,21.42
2022-12-20T23:01:25.136Z,21.45
2022-12-20T23:03:52.825Z,21.52
2022-12-20T23:06:21.696Z,20.80
2022-12-20T23:08:49.527Z,21.70
2022-12-20T23:11:46.381Z,22.02
2022-12-20T23:14:37.514Z,20.08
2022-12-20T23:17:08.464Z,20.20
2022-12-20T23:19:54.724Z,20.65
2022-12-20T23:22:43.596Z,19.92
2022-12-20T23:25:19.173Z,19.80
2022-12-20T23:27:50.491Z,19.45
2022-12-20T23:30:24.561Z,19.58
2022-12-20T23:32:53.725Z,19.65
2022-12-20T23:35:21.494Z,19.08
2022-12-20T23:37:49.032Z,19.55
2022-12-20T23:40:17.377Z,19.25
2022-12-20T23:42:47.674Z,19.10
2022-12-20T23:45:15.500Z,18.95
2022-12-20T23:47:43.424Z,19.48
2022-12-20T23:50:11.515Z,19.15
2022-12-20T23:52:38.780Z,19.83
2022-12-20T23:55:07.028Z,20.35
2022-12-20T23:57:34.453Z,20.52
